Time;durP1;ratioP1;P1;durP2;ratioP2;P2;SDS_P1;SDS_P2;PMS_P1;PMS_P2;Temp;Humidity;BMP_temperature;BMP_pressure;BME280_temperature;BME280_humidity;BME280_pressure;Samples;Min_cycle;Max_cycle;Signal;HPM_P1;HPM_P2
2024/02/04 00:03:03;;;;;;;16.60;2.90;;;;;;;7.07;100.00;100329.70;220626;1262;140592;-88
2024/02/04 00:08:03;;;;;;;11.50;2.50;;;;;;;7.04;100.00;100328.86;220818;1263;139420;-89
2024/02/04 00:13:04;;;;;;;14.90;2.30;;;;;;;7.00;100.00;100327.73;220112;1264;140029;-90
2024/02/04 00:18:04;;;;;;;14.40;2.50;;;;;;;6.94;100.00;100322.27;220835;1262;139508;-91
2024/02/04 00:23:05;;;;;;;8.20;2.70;;;;;;;6.88;100.00;100326.13;220467;1262;139973;-88
2024/02/04 00:28:06;;;;;;;15.30;2.90;;;;;;;6.81;100.00;100330.46;221016;1263;96594;-86
2024/02/04 00:33:06;;;;;;;13.20;4.40;;;;;;;6.73;100.00;100334.71;220686;1263;140435;-87
2024/02/04 00:38:06;;;;;;;13.50;2.40;;;;;;;6.65;100.00;100336.25;221938;1262;139838;-88
2024/02/04 00:43:07;;;;;;;10.50;1.60;;;;;;;6.56;100.00;100338.60;220453;1263;139917;-88
2024/02/04 00:48:07;;;;;;;11.40;2.30;;;;;;;6.46;100.00;100346.15;220851;1262;138978;-88
2024/02/04 00:53:08;;;;;;;10.20;2.20;;;;;;;6.37;100.00;100333.17;220188;1263;140119;-87
2024/02/04 00:58:08;;;;;;;10.90;1.90;;;;;;;6.27;100.00;100343.09;220685;1263;97708;-87
2024/02/04 01:03:09;;;;;;;8.70;2.20;;;;;;;6.20;100.00;100345.70;220271;1262;139788;-87
2024/02/04 01:08:09;;;;;;;12.50;2.30;;;;;;;6.14;100.00;100337.33;220672;1263;139057;-86
2024/02/04 01:13:09;;;;;;;11.00;2.00;;;;;;;6.10;100.00;100326.44;219481;1263;140019;-88
2024/02/04 01:18:10;;;;;;;12.70;2.10;;;;;;;6.04;100.00;100324.19;219784;1262;139195;-88
2024/02/04 01:23:10;;;;;;;15.50;2.80;;;;;;;6.00;100.00;100346.45;219463;1262;140390;-87
2024/02/04 01:28:11;;;;;;;11.20;2.60;;;;;;;5.93;100.00;100345.96;220010;1263;97953;-86
2024/02/04 01:33:11;;;;;;;13.00;2.70;;;;;;;5.86;100.00;100349.17;219313;1263;139520;-87
2024/02/04 01:38:11;;;;;;;14.30;2.10;;;;;;;5.79;100.00;100337.90;220882;1262;138880;-87
2024/02/04 01:43:12;;;;;;;19.50;2.80;;;;;;;5.74;100.00;100335.15;220564;1263;140003;-87
2024/02/04 01:48:15;;;;;;;13.40;2.10;;;;;;;5.69;100.00;100335.04;221251;1264;139403;-87
2024/02/04 01:53:18;;;;;;;19.50;2.60;;;;;;;5.70;100.00;100328.86;220597;1266;139762;-87
2024/02/04 01:58:18;;;;;;;15.40;3.00;;;;;;;5.72;100.00;100316.14;221118;1263;104277;-88
2024/02/04 02:03:19;;;;;;;11.60;3.00;;;;;;;5.74;100.00;100312.39;220662;1263;139805;-90
2024/02/04 02:08:20;;;;;;;12.10;2.60;;;;;;;5.76;100.00;100312.81;220849;1262;139049;-89
2024/02/04 02:13:24;;;;;;;10.50;2.50;;;;;;;5.76;100.00;100319.00;220598;1263;140114;-91
2024/02/04 02:18:31;;;;;;;20.50;2.80;;;;;;;5.75;100.00;100327.62;220992;1262;138886;-91
2024/02/04 02:23:35;;;;;;;;;;;;;;;5.73;100.00;100331.55;220646;1262;140662;-89
2024/02/04 02:28:35;;;;;;;13.20;2.20;;;;;;;5.69;100.00;100325.05;221393;1263;97930;-89
2024/02/04 02:33:35;;;;;;;17.00;3.60;;;;;;;5.67;100.00;100317.65;220669;1262;140030;-88
2024/02/04 02:39:13;;;;;;;17.90;2.70;;;;;;;5.68;100.00;100307.59;221969;1263;138777;-90
2024/02/04 02:44:14;;;;;;;12.70;2.90;;;;;;;5.71;100.00;100310.89;220195;1266;140135;-89
2024/02/04 02:49:15;;;;;;;17.80;3.10;;;;;;;5.74;100.00;100314.88;221380;1263;138920;-89
2024/02/04 02:54:16;;;;;;;15.60;3.50;;;;;;;5.77;100.00;100311.77;220552;1263;140721;-89
2024/02/04 02:59:16;;;;;;;15.00;2.60;;;;;;;5.80;100.00;100320.55;221033;1263;139141;-90
2024/02/04 03:04:17;;;;;;;21.60;3.10;;;;;;;5.83;100.00;100336.85;220822;1266;139970;-92
2024/02/04 03:09:17;;;;;;;17.20;3.10;;;;;;;5.85;100.00;100335.48;220158;1262;138678;-91
2024/02/04 03:14:18;;;;;;;14.10;3.00;;;;;;;5.86;100.00;100329.70;219633;1262;139886;-89
2024/02/04 03:19:18;;;;;;;14.30;3.00;;;;;;;5.90;100.00;100322.95;220367;1266;139324;-90
2024/02/04 03:24:19;;;;;;;15.20;3.10;;;;;;;5.92;100.00;100324.23;219565;1262;140261;-90
2024/02/04 03:29:20;;;;;;;11.60;2.60;;;;;;;5.92;100.00;100334.31;220039;1263;138747;-90
2024/02/04 03:34:20;;;;;;;15.00;4.20;;;;;;;5.93;100.00;100332.30;219600;1263;139698;-90
2024/02/04 03:39:21;;;;;;;12.80;2.70;;;;;;;5.93;100.00;100334.27;221048;1263;139459;-89
2024/02/04 03:44:22;;;;;;;11.70;2.90;;;;;;;5.92;100.00;100327.75;219353;1263;140118;-88
2024/02/04 03:49:22;;;;;;;20.40;3.40;;;;;;;5.90;100.00;100337.05;219930;1263;139063;-86
2024/02/04 03:54:23;;;;;;;16.60;2.90;;;;;;;5.88;100.00;100335.44;219610;1263;139926;-87
2024/02/04 03:59:23;;;;;;;13.80;2.90;;;;;;;5.86;100.00;100324.21;221650;1262;141833;-90
2024/02/04 04:04:26;;;;;;;9.00;2.30;;;;;;;5.82;100.00;100328.88;219513;1262;139724;-89
2024/02/04 04:09:26;;;;;;;12.90;2.40;;;;;;;5.78;100.00;100328.58;220086;1262;139087;-89
2024/02/04 04:14:27;;;;;;;11.90;2.30;;;;;;;5.72;100.00;100334.64;219506;1266;140565;-88
2024/02/04 04:19:27;;;;;;;13.50;3.00;;;;;;;5.66;100.00;100338.35;220074;1262;139706;-90
2024/02/04 04:24:30;;;;;;;12.50;2.40;;;;;;;5.59;100.00;100350.63;219400;1263;139572;-88
2024/02/04 04:29:30;;;;;;;12.70;2.40;;;;;;;5.51;100.00;100356.17;219897;1266;139415;-89
2024/02/04 04:34:31;;;;;;;17.80;3.30;;;;;;;5.41;100.00;100352.12;219474;1262;140172;-88
2024/02/04 04:39:31;;;;;;;18.80;2.50;;;;;;;5.34;100.00;100352.69;221300;1263;139448;-90
2024/02/04 04:44:32;;;;;;;10.50;2.50;;;;;;;5.27;100.00;100346.93;219476;1262;140257;-88
2024/02/04 04:49:32;;;;;;;15.40;3.80;;;;;;;5.22;100.00;100346.61;219908;1267;140561;-88
2024/02/04 04:54:33;;;;;;;13.20;3.30;;;;;;;5.14;100.00;100349.34;219343;1263;139917;-89
2024/02/04 04:59:34;;;;;;;15.00;3.30;;;;;;;5.08;100.00;100351.41;219972;1263;138876;-89
2024/02/04 05:04:35;;;;;;;13.50;2.70;;;;;;;5.02;100.00;100343.90;219392;1262;140158;-89
2024/02/04 05:09:35;;;;;;;13.60;2.80;;;;;;;5.03;100.00;100335.65;219906;1267;139637;-88
2024/02/04 05:14:36;;;;;;;16.80;3.00;;;;;;;5.02;100.00;100340.86;219342;1263;139528;-88
2024/02/04 05:19:36;;;;;;;18.00;2.80;;;;;;;5.01;100.00;100343.63;219707;1263;139013;-89
2024/02/04 05:24:37;;;;;;;15.30;2.70;;;;;;;5.02;100.00;100334.63;219451;1263;140404;-89
2024/02/04 05:29:37;;;;;;;13.80;3.40;;;;;;;5.05;100.00;100326.27;219809;1263;139453;-89
2024/02/04 05:34:38;;;;;;;12.60;2.50;;;;;;;5.07;100.00;100318.19;219526;1266;139953;-89
2024/02/04 05:39:38;;;;;;;16.80;2.40;;;;;;;5.10;100.00;100306.12;220462;1262;139477;-88
2024/02/04 05:44:39;;;;;;;12.30;3.20;;;;;;;5.13;100.00;100299.11;219994;1262;140459;-87
2024/02/04 05:49:40;;;;;;;17.30;2.90;;;;;;;5.13;100.00;100290.15;219966;1262;139722;-89
2024/02/04 05:54:40;;;;;;;12.90;2.30;;;;;;;5.12;100.00;100296.59;219432;1263;140145;-88
2024/02/04 05:59:41;;;;;;;14.60;2.50;;;;;;;5.11;100.00;100300.91;219852;1263;138994;-89
2024/02/04 06:04:41;;;;;;;16.80;2.80;;;;;;;5.09;100.00;100296.13;219717;1262;139838;-88
2024/02/04 06:09:41;;;;;;;12.40;2.70;;;;;;;5.09;100.00;100289.24;219935;1262;138768;-88
2024/02/04 06:14:42;;;;;;;16.30;2.50;;;;;;;5.07;100.00;100274.14;219480;1263;140389;-89
2024/02/04 06:19:42;;;;;;;19.10;3.10;;;;;;;5.05;100.00;100269.72;220127;1267;140107;-87
2024/02/04 06:24:43;;;;;;;17.50;2.90;;;;;;;5.03;100.00;100263.43;219450;1263;140264;-88
2024/02/04 06:29:43;;;;;;;11.40;2.40;;;;;;;5.03;100.00;100256.19;220233;1263;139241;-86
2024/02/04 06:34:44;;;;;;;14.50;2.30;;;;;;;5.05;100.00;100253.03;219799;1262;140106;-86
2024/02/04 06:39:44;;;;;;;15.10;2.80;;;;;;;5.05;100.00;100253.66;220219;1266;139272;-86
2024/02/04 06:44:45;;;;;;;17.20;2.80;;;;;;;5.05;100.00;100247.75;220784;1263;139594;-87
2024/02/04 06:49:45;;;;;;;14.70;2.60;;;;;;;5.09;100.00;100261.98;219974;1264;141864;-86
2024/02/04 06:54:46;;;;;;;14.00;2.30;;;;;;;5.13;100.00;100263.04;219559;1263;140862;-86
2024/02/04 06:59:46;;;;;;;13.40;2.20;;;;;;;5.18;100.00;100265.91;219976;1263;141700;-89
2024/02/04 07:04:46;;;;;;;15.60;2.30;;;;;;;5.22;100.00;100249.03;219714;1264;140128;-87
2024/02/04 07:09:47;;;;;;;10.30;2.40;;;;;;;5.27;100.00;100249.27;219922;1263;138953;-89
2024/02/04 07:14:47;;;;;;;8.30;2.20;;;;;;;5.32;100.00;100251.82;219429;1263;139810;-88
2024/02/04 07:19:47;;;;;;;17.30;4.30;;;;;;;5.36;100.00;100236.80;219942;1266;140351;-86
2024/02/04 07:24:48;;;;;;;13.60;2.50;;;;;;;5.42;100.00;100233.56;219430;1264;139727;-88
2024/02/04 07:29:48;;;;;;;12.40;2.10;;;;;;;5.48;100.00;100231.31;219958;1267;139647;-89
2024/02/04 07:34:49;;;;;;;14.20;2.10;;;;;;;5.53;100.00;100233.31;219533;1268;139263;-90
2024/02/04 07:39:49;;;;;;;23.30;2.70;;;;;;;5.60;100.00;100239.29;219812;1263;139333;-88
2024/02/04 07:44:50;;;;;;;12.80;2.30;;;;;;;5.68;100.00;100249.71;220806;1263;139831;-88
2024/02/04 07:49:51;;;;;;;10.60;2.60;;;;;;;5.74;100.00;100248.96;219899;1266;139071;-88
2024/02/04 07:54:52;;;;;;;16.50;2.80;;;;;;;5.82;100.00;100247.71;219451;1263;141330;-89
2024/02/04 07:59:53;;;;;;;21.00;3.30;;;;;;;5.90;100.00;100235.94;220038;1263;139119;-85
2024/02/04 08:04:53;;;;;;;16.90;2.60;;;;;;;5.98;100.00;100217.02;219987;1263;139818;-89
2024/02/04 08:09:54;;;;;;;11.10;2.60;;;;;;;6.06;100.00;100215.42;219591;1263;140505;-86
2024/02/04 08:14:55;;;;;;;12.10;2.60;;;;;;;6.13;100.00;100216.94;219897;1263;139637;-87
2024/02/04 08:19:55;;;;;;;11.10;3.00;;;;;;;6.22;100.00;100221.45;219911;1263;140231;-87
2024/02/04 08:24:55;;;;;;;12.50;2.40;;;;;;;6.30;100.00;100215.09;220059;1263;139646;-89
2024/02/04 08:29:56;;;;;;;14.90;3.20;;;;;;;6.38;100.00;100213.73;220032;1263;139625;-85
2024/02/04 08:34:57;;;;;;;15.00;3.20;;;;;;;6.45;100.00;100201.65;220113;1264;97856;-86
2024/02/04 08:39:58;;;;;;;14.50;2.90;;;;;;;6.54;100.00;100210.14;219716;1264;140115;-88
2024/02/04 08:44:58;;;;;;;14.00;2.60;;;;;;;6.63;100.00;100211.05;221535;1263;138867;-88
2024/02/04 08:49:59;;;;;;;7.60;2.40;;;;;;;6.71;100.00;100205.45;219496;1263;140673;-88
2024/02/04 08:54:59;;;;;;;12.80;2.50;;;;;;;6.79;100.00;100203.06;220149;1262;139129;-86
2024/02/04 09:00:00;;;;;;;12.80;2.50;;;;;;;6.89;100.00;100203.98;219639;1263;139773;-86
2024/02/04 09:05:01;;;;;;;10.40;2.00;;;;;;;6.97;100.00;100205.57;220064;1263;139966;-87
2024/02/04 09:10:01;;;;;;;9.60;2.30;;;;;;;7.06;100.00;100208.81;220003;1263;166457;-89
2024/02/04 09:15:04;;;;;;;12.00;2.30;;;;;;;7.13;100.00;100193.73;221302;1266;139129;-87
2024/02/04 09:20:06;;;;;;;10.60;2.10;;;;;;;7.22;100.00;100185.52;220986;1266;140458;-89
2024/02/04 09:25:08;;;;;;;14.90;2.10;;;;;;;7.29;100.00;100185.98;223075;1263;139420;-91
2024/02/04 09:30:09;;;;;;;10.10;2.20;;;;;;;7.34;100.00;100190.62;222859;1263;141000;-89
2024/02/04 09:35:10;;;;;;;8.10;1.80;;;;;;;7.39;100.00;100191.27;223449;1263;138822;-89
2024/02/04 09:40:11;;;;;;;12.30;2.20;;;;;;;7.41;100.00;100190.08;222822;1263;140728;-93
2024/02/04 09:45:14;;;;;;;9.40;2.40;;;;;;;7.44;100.00;100183.70;223667;1263;138812;-89
2024/02/04 09:50:15;;;;;;;13.00;2.70;;;;;;;7.48;100.00;100182.37;222408;1266;140410;-88
2024/02/04 09:55:17;;;;;;;15.30;2.80;;;;;;;7.51;100.00;100181.58;223202;1266;140344;-90
2024/02/04 10:00:22;;;;;;;10.60;3.70;;;;;;;7.56;100.00;100176.67;220259;1263;140640;-91
2024/02/04 10:05:22;;;;;;;9.20;2.30;;;;;;;7.61;100.00;100166.58;220263;1268;140573;-90
2024/02/04 10:10:23;;;;;;;15.80;2.30;;;;;;;7.65;100.00;100167.13;219877;1263;140147;-89
2024/02/04 10:15:23;;;;;;;15.20;3.20;;;;;;;7.69;100.00;100156.34;220902;1262;139689;-90
2024/02/04 10:20:24;;;;;;;7.10;2.00;;;;;;;7.76;100.00;100155.05;220285;1266;140150;-91
2024/02/04 10:25:24;;;;;;;11.30;2.10;;;;;;;7.82;100.00;100156.88;220483;1263;192548;-90
2024/02/04 10:30:25;;;;;;;17.90;2.70;;;;;;;7.89;100.00;100151.20;220402;1266;140025;-92
2024/02/04 10:35:25;;;;;;;7.70;3.00;;;;;;;7.98;100.00;100148.23;221009;1263;139324;-90
2024/02/04 10:40:26;;;;;;;10.10;2.20;;;;;;;8.07;100.00;100143.14;220314;1266;139809;-89
2024/02/04 10:45:32;;;;;;;10.90;2.00;;;;;;;8.16;100.00;100136.46;222110;1263;140394;-89
2024/02/04 10:50:35;;;;;;;11.50;2.30;;;;;;;8.19;100.00;100112.02;219912;1263;140086;-89
2024/02/04 10:55:41;;;;;;;9.50;2.30;;;;;;;8.23;99.99;100106.84;220614;1266;139744;-91
2024/02/04 11:00:44;;;;;;;7.70;2.50;;;;;;;8.23;100.00;100092.98;220021;1266;139835;-89
2024/02/04 11:05:46;;;;;;;7.90;2.30;;;;;;;8.21;100.00;100076.75;220473;1263;139291;-89
2024/02/04 11:10:47;;;;;;;10.30;2.60;;;;;;;8.21;100.00;100066.73;219699;1267;140420;-90
2024/02/04 11:15:48;;;;;;;9.00;2.20;;;;;;;8.23;100.00;100054.30;220210;1264;138745;-92
2024/02/04 11:21:27;;;;;;;10.20;2.20;;;;;;;8.23;100.00;100049.45;219943;1267;140400;-89
2024/02/04 11:26:28;;;;;;;14.50;2.80;;;;;;;8.27;100.00;100053.18;220501;1268;138791;-90
2024/02/04 11:31:29;;;;;;;10.90;2.50;;;;;;;8.29;100.00;100055.71;219741;1264;139745;-88
2024/02/04 11:36:38;;;;;;;11.10;2.60;;;;;;;8.32;100.00;100048.08;220415;1262;138963;-90
2024/02/04 11:41:46;;;;;;;14.60;2.40;;;;;;;8.38;99.76;100038.91;220078;1267;141011;-90
2024/02/04 11:46:47;;;;;;;7.10;2.00;;;;;;;8.38;99.95;100047.70;221261;1266;97929;-91
2024/02/04 11:51:50;;;;;;;11.60;2.80;;;;;;;8.41;99.55;100043.50;220061;1266;139726;-93
2024/02/04 11:56:53;;;;;;;12.60;4.20;;;;;;;8.35;98.48;100033.80;220423;1263;139168;-92
2024/02/04 12:01:57;;;;;;;8.80;2.50;;;;;;;8.32;98.98;100025.74;220164;1263;139922;-90
2024/02/04 12:06:58;;;;;;;5.30;1.90;;;;;;;8.28;99.30;100020.69;220486;1266;138584;-91
2024/02/04 12:11:59;;;;;;;10.60;2.90;;;;;;;8.26;99.79;100012.05;220011;1266;139651;-89
2024/02/04 12:17:08;;;;;;;12.30;2.90;;;;;;;8.24;99.60;100002.61;221190;1269;107756;-88
2024/02/04 12:22:10;;;;;;;11.80;3.10;;;;;;;8.21;99.67;99995.92;220727;1269;139949;-90
2024/02/04 12:27:10;;;;;;;7.40;2.30;;;;;;;8.22;99.55;99992.64;221062;1264;138227;-92
2024/02/04 12:32:13;;;;;;;10.90;3.00;;;;;;;8.26;99.73;99985.27;220405;1266;139504;-90
2024/02/04 12:37:14;;;;;;;9.80;3.00;;;;;;;8.28;99.20;99978.94;220347;1263;138527;-90
2024/02/04 12:42:19;;;;;;;7.30;2.60;;;;;;;8.31;99.48;99978.50;220241;1263;139970;-89
2024/02/04 12:47:20;;;;;;;7.60;2.30;;;;;;;8.31;99.72;99972.86;221544;1263;138784;-90
2024/02/04 12:52:22;;;;;;;10.50;2.40;;;;;;;8.29;99.67;99967.98;219783;1268;139556;-89
2024/02/04 12:57:26;;;;;;;7.60;2.20;;;;;;;8.28;99.05;99962.09;220050;1269;139143;-91
2024/02/04 13:02:26;;;;;;;11.50;3.10;;;;;;;8.26;98.74;99954.32;219610;1266;139135;-87
2024/02/04 13:07:27;;;;;;;12.20;2.90;;;;;;;8.24;98.43;99948.81;220424;1264;138934;-91
2024/02/04 13:12:28;;;;;;;11.50;2.50;;;;;;;8.23;99.08;99948.33;219547;1267;140368;-91
2024/02/04 13:17:28;;;;;;;8.50;2.90;;;;;;;8.20;99.12;99945.30;220150;1268;138839;-91
2024/02/04 13:22:31;;;;;;;11.80;2.50;;;;;;;8.18;98.82;99942.67;219649;1265;139769;-90
2024/02/04 13:27:31;;;;;;;9.20;2.40;;;;;;;8.14;98.33;99943.31;220104;1266;138704;-92
2024/02/04 13:32:32;;;;;;;10.60;2.70;;;;;;;8.12;98.52;99943.77;219612;1264;139975;-91
2024/02/04 13:37:33;;;;;;;12.30;2.40;;;;;;;8.11;98.53;99939.14;220276;1269;138508;-92
2024/02/04 13:42:34;;;;;;;8.20;2.10;;;;;;;8.07;98.84;99935.64;220184;1263;139553;-87
2024/02/04 13:47:35;;;;;;;11.10;2.50;;;;;;;8.04;98.54;99930.73;221573;1268;138411;-93
2024/02/04 13:52:36;;;;;;;6.50;2.40;;;;;;;8.01;98.39;99925.53;220054;1267;139482;-91
2024/02/04 13:57:36;;;;;;;16.40;3.60;;;;;;;7.99;99.04;99923.48;220292;1266;138545;-91
2024/02/04 14:02:38;;;;;;;27.30;8.00;;;;;;;7.96;98.19;99925.86;219621;1266;140416;-91
2024/02/04 14:07:39;;;;;;;15.30;3.00;;;;;;;7.93;98.23;99925.83;220209;1264;139360;-92
2024/02/04 14:12:41;;;;;;;12.20;2.10;;;;;;;7.90;97.32;99930.55;219717;1267;139639;-91
2024/02/04 14:17:42;;;;;;;9.30;2.40;;;;;;;7.87;97.59;99924.72;220232;1263;138678;-90
2024/02/04 14:22:42;;;;;;;11.80;2.60;;;;;;;7.85;97.61;99920.30;219800;1264;139752;-91
2024/02/04 14:27:43;;;;;;;10.80;2.40;;;;;;;7.84;97.64;99918.71;220377;1267;138413;-88
2024/02/04 14:32:43;;;;;;;14.50;3.40;;;;;;;7.82;97.56;99911.10;219984;1266;139374;-91
2024/02/04 14:37:44;;;;;;;12.80;2.90;;;;;;;7.80;97.37;99914.45;220344;1267;138786;-91
2024/02/04 14:42:44;;;;;;;13.50;2.80;;;;;;;7.79;97.36;99917.02;220380;1262;141259;-90
2024/02/04 14:47:45;;;;;;;14.10;2.20;;;;;;;7.76;97.18;99918.94;221393;1266;138481;-90
2024/02/04 14:52:45;;;;;;;10.20;2.60;;;;;;;7.74;97.77;99923.52;219821;1263;140280;-90
2024/02/04 14:57:46;;;;;;;10.50;2.40;;;;;;;7.72;96.90;99927.70;220310;1264;138813;-91
2024/02/04 15:02:46;;;;;;;14.20;3.60;;;;;;;7.70;97.56;99917.42;219814;1266;140377;-91
2024/02/04 15:07:47;;;;;;;12.90;2.70;;;;;;;7.68;97.77;99919.67;220734;1263;138624;-91
2024/02/04 15:12:47;;;;;;;10.50;2.60;;;;;;;7.67;97.69;99917.94;219881;1262;139642;-91
2024/02/04 15:17:48;;;;;;;6.90;2.50;;;;;;;7.64;97.35;99907.17;220078;1264;139067;-93
2024/02/04 15:22:49;;;;;;;10.40;2.80;;;;;;;7.62;97.34;99901.27;219850;1266;139505;-90
2024/02/04 15:27:52;;;;;;;10.00;3.20;;;;;;;7.59;97.90;99903.89;220053;1266;138447;-89
2024/02/04 15:32:54;;;;;;;13.70;3.40;;;;;;;7.55;97.58;99898.98;219687;1264;140607;-90
2024/02/04 15:37:58;;;;;;;14.30;3.90;;;;;;;7.53;97.80;99896.06;220242;1263;138981;-91
2024/02/04 15:43:00;;;;;;;10.30;3.10;;;;;;;7.49;97.69;99895.60;220715;1263;139339;-90
2024/02/04 15:48:04;;;;;;;11.80;2.80;;;;;;;7.46;97.82;99893.20;220794;1263;138999;-89
2024/02/04 15:53:04;;;;;;;11.50;2.70;;;;;;;7.44;97.47;99888.11;219878;1264;142209;-92
2024/02/04 15:58:06;;;;;;;11.10;3.70;;;;;;;7.44;97.81;99891.86;220079;1264;138131;-90
2024/02/04 16:03:07;;;;;;;13.00;3.70;;;;;;;7.42;97.82;99886.13;219545;1264;141717;-90
2024/02/04 16:08:11;;;;;;;12.50;4.10;;;;;;;7.40;97.37;99886.34;220203;1264;138453;-90
2024/02/04 16:13:12;;;;;;;14.30;3.20;;;;;;;7.40;97.61;99887.20;219716;1266;139066;-90
2024/02/04 16:18:13;;;;;;;8.40;3.30;;;;;;;7.39;97.93;99884.28;220243;1263;138673;-91
2024/02/04 16:23:14;;;;;;;12.40;3.20;;;;;;;7.38;98.25;99887.86;219867;1262;139253;-92
2024/02/04 16:28:16;;;;;;;9.60;3.50;;;;;;;7.39;98.27;99885.98;220390;1263;97969;-92
2024/02/04 16:33:16;;;;;;;13.00;3.60;;;;;;;7.39;98.07;99885.29;219818;1262;139171;-89
2024/02/04 16:38:17;;;;;;;13.60;3.40;;;;;;;7.39;98.09;99893.12;220244;1262;138480;-93
2024/02/04 16:43:17;;;;;;;12.60;2.90;;;;;;;7.41;97.81;99884.08;220809;1266;139458;-91
2024/02/04 16:48:18;;;;;;;10.40;3.90;;;;;;;7.41;97.76;99880.86;220433;1266;139263;-90
2024/02/04 16:53:21;;;;;;;10.50;2.50;;;;;;;7.41;98.17;99877.20;219393;1263;139758;-93
2024/02/04 16:58:22;;;;;;;12.80;3.60;;;;;;;7.40;98.17;99878.50;220179;1262;98388;-93
2024/02/04 17:03:23;;;;;;;12.10;3.60;;;;;;;7.40;98.54;99872.96;219614;1267;140426;-91
2024/02/04 17:08:25;;;;;;;10.60;3.20;;;;;;;7.40;98.68;99876.09;220090;1263;140904;-90
2024/02/04 17:13:26;;;;;;;16.00;3.70;;;;;;;7.39;98.17;99865.19;219970;1264;139099;-89
2024/02/04 17:18:38;;;;;;;14.30;2.70;;;;;;;7.40;98.58;99864.02;220500;1266;138951;-91
2024/02/04 17:23:42;;;;;;;12.90;3.30;;;;;;;7.40;98.35;99854.56;220013;1263;139618;-92
2024/02/04 17:28:43;;;;;;;10.50;2.30;;;;;;;7.40;98.64;99850.66;220795;1263;97961;-94
2024/02/04 17:33:44;;;;;;;9.70;2.70;;;;;;;7.40;98.76;99850.27;220294;1267;139606;-89
2024/02/04 17:38:44;;;;;;;13.20;3.40;;;;;;;7.40;98.89;99851.11;220383;1262;138289;-88
2024/02/04 17:43:46;;;;;;;10.00;2.70;;;;;;;7.40;99.01;99849.02;220562;1264;139445;-90
2024/02/04 17:48:46;;;;;;;15.00;3.10;;;;;;;7.39;98.97;99840.34;220255;1262;138845;-91
2024/02/04 17:53:47;;;;;;;10.60;2.50;;;;;;;7.40;99.06;99842.45;219858;1263;139478;-88
2024/02/04 17:58:49;;;;;;;13.80;2.90;;;;;;;7.40;99.04;99839.39;220611;1263;98025;-90
2024/02/04 18:03:49;;;;;;;11.20;2.90;;;;;;;7.40;99.35;99831.97;219944;1262;139221;-88
2024/02/04 18:08:50;;;;;;;13.20;3.10;;;;;;;7.38;99.59;99832.09;220434;1262;138438;-89
2024/02/04 18:13:53;;;;;;;9.40;2.50;;;;;;;7.38;99.77;99842.80;219855;1263;139303;-90
2024/02/04 18:18:57;;;;;;;13.00;3.10;;;;;;;7.38;99.81;99841.96;220230;1263;139007;-87
2024/02/04 18:24:00;;;;;;;10.80;2.70;;;;;;;7.38;99.84;99827.09;219685;1262;139727;-88
2024/02/04 18:29:02;;;;;;;11.40;2.90;;;;;;;7.38;99.94;99824.11;220634;1267;98048;-91
2024/02/04 18:34:02;;;;;;;9.10;2.80;;;;;;;7.38;100.00;99818.10;219950;1264;139490;-90
2024/02/04 18:39:03;;;;;;;12.70;2.60;;;;;;;7.39;100.00;99809.89;220254;1263;139481;-93
2024/02/04 18:44:04;;;;;;;9.30;2.80;;;;;;;7.40;100.00;99808.89;220541;1263;139598;-91
2024/02/04 18:49:05;;;;;;;20.30;8.60;;;;;;;7.40;100.00;99799.90;220666;1262;138676;-92
2024/02/04 18:54:07;;;;;;;12.90;2.70;;;;;;;7.38;100.00;99800.66;219617;1264;139415;-89
2024/02/04 18:59:08;;;;;;;15.40;3.00;;;;;;;7.36;100.00;99794.84;220348;1266;138744;-88
2024/02/04 19:04:09;;;;;;;12.40;4.40;;;;;;;7.35;100.00;99794.73;220342;1263;139962;-91
2024/02/04 19:09:12;;;;;;;16.00;3.10;;;;;;;7.34;100.00;99796.61;220592;1263;138725;-90
2024/02/04 19:14:12;;;;;;;11.80;3.30;;;;;;;7.35;100.00;99798.98;220113;1262;140565;-93
2024/02/04 19:19:14;;;;;;;9.50;3.00;;;;;;;7.36;100.00;99794.14;220804;1267;138636;-90
2024/02/04 19:24:18;;;;;;;6.30;2.30;;;;;;;7.37;100.00;99792.44;219946;1263;139652;-93
2024/02/04 19:29:19;;;;;;;13.50;2.70;;;;;;;7.37;100.00;99791.96;220040;1262;138750;-91
2024/02/04 19:34:19;;;;;;;11.90;2.50;;;;;;;7.35;100.00;99795.99;219995;1262;139695;-92
2024/02/04 19:39:20;;;;;;;8.70;2.40;;;;;;;7.34;100.00;99794.11;220361;1264;140351;-93
2024/02/04 19:44:21;;;;;;;11.90;3.40;;;;;;;7.34;100.00;99792.70;220630;1263;139921;-93
2024/02/04 19:49:23;;;;;;;12.70;2.40;;;;;;;7.34;100.00;99782.46;220554;1267;138787;-94
2024/02/04 19:54:24;;;;;;;10.40;2.10;;;;;;;7.33;100.00;99779.39;220435;1266;139485;-91
2024/02/04 19:59:24;;;;;;;8.30;2.30;;;;;;;7.31;100.00;99785.55;220945;1266;139762;-92
2024/02/04 20:04:25;;;;;;;14.40;2.80;;;;;;;7.30;100.00;99779.27;219876;1262;139464;-92
2024/02/04 20:09:27;;;;;;;9.50;2.80;;;;;;;7.29;100.00;99771.13;220293;1262;138688;-91
2024/02/04 20:14:27;;;;;;;12.90;2.80;;;;;;;7.29;100.00;99767.61;219586;1263;139867;-87
2024/02/04 20:19:28;;;;;;;9.20;3.00;;;;;;;7.28;100.00;99760.08;220041;1263;139051;-91
2024/02/04 20:24:28;;;;;;;13.10;3.50;;;;;;;7.26;100.00;99757.64;219680;1262;139460;-91
2024/02/04 20:29:29;;;;;;;12.40;2.90;;;;;;;7.26;100.00;99753.27;220086;1263;138877;-92
2024/02/04 20:34:30;;;;;;;10.40;3.30;;;;;;;7.25;100.00;99756.06;219728;1262;140096;-88
2024/02/04 20:39:31;;;;;;;10.40;2.90;;;;;;;7.24;100.00;99760.98;220412;1263;138678;-89
2024/02/04 20:44:31;;;;;;;9.30;3.40;;;;;;;7.22;100.00;99754.54;220026;1263;139781;-90
2024/02/04 20:49:32;;;;;;;9.10;2.80;;;;;;;7.19;100.00;99754.73;220283;1263;138742;-91
2024/02/04 20:54:33;;;;;;;8.70;2.60;;;;;;;7.19;100.00;99746.37;219533;1262;139199;-88
2024/02/04 20:59:33;;;;;;;10.60;2.70;;;;;;;7.19;100.00;99738.32;220114;1263;138754;-89
2024/02/04 21:04:34;;;;;;;10.70;3.00;;;;;;;7.19;100.00;99745.11;219536;1263;140022;-89
2024/02/04 21:09:34;;;;;;;12.70;3.10;;;;;;;7.18;100.00;99739.31;220043;1262;138778;-88
2024/02/04 21:14:38;;;;;;;12.40;2.80;;;;;;;7.16;100.00;99739.44;219590;1263;139780;-89
2024/02/04 21:19:38;;;;;;;16.40;4.10;;;;;;;7.15;100.00;99741.70;220084;1263;139917;-92
2024/02/04 21:24:38;;;;;;;10.80;2.90;;;;;;;7.14;100.00;99731.98;219772;1263;140600;-89
2024/02/04 21:29:39;;;;;;;8.50;2.90;;;;;;;7.13;100.00;99723.69;220280;1262;139539;-88
2024/02/04 21:34:39;;;;;;;10.20;3.10;;;;;;;7.11;100.00;99721.78;220846;1263;139838;-89
2024/02/04 21:39:40;;;;;;;11.10;2.70;;;;;;;7.08;100.00;99709.38;220342;1263;138685;-90
2024/02/04 21:44:44;;;;;;;5.90;2.50;;;;;;;7.07;100.00;99708.52;221626;1262;140423;-91
2024/02/04 21:49:45;;;;;;;11.50;2.90;;;;;;;7.06;100.00;99702.72;220583;1263;138424;-93
2024/02/04 21:54:45;;;;;;;8.90;2.80;;;;;;;7.03;100.00;99697.91;219816;1263;140349;-91
2024/02/04 21:59:46;;;;;;;12.00;3.00;;;;;;;7.00;100.00;99702.73;220138;1262;138467;-90
2024/02/04 22:04:46;;;;;;;10.80;3.50;;;;;;;6.97;100.00;99692.19;219886;1262;139548;-92
2024/02/04 22:09:47;;;;;;;10.30;2.80;;;;;;;6.94;100.00;99682.79;220373;1262;138457;-92
2024/02/04 22:14:48;;;;;;;8.40;2.80;;;;;;;6.91;100.00;99674.06;219566;1262;139468;-91
2024/02/04 22:19:48;;;;;;;9.10;2.90;;;;;;;6.89;100.00;99667.55;220135;1262;138510;-91
2024/02/04 22:24:48;;;;;;;9.80;3.00;;;;;;;6.86;100.00;99668.68;219477;1262;341190;-94
2024/02/04 22:29:49;;;;;;;7.00;2.40;;;;;;;6.82;100.00;99665.28;220153;1263;138933;-92
2024/02/04 22:34:49;;;;;;;10.40;3.00;;;;;;;6.79;100.00;99673.83;219964;1263;139349;-89
2024/02/04 22:39:49;;;;;;;9.50;3.00;;;;;;;6.77;100.00;99669.09;220276;1263;138708;-87
2024/02/04 22:44:50;;;;;;;7.00;2.80;;;;;;;6.74;100.00;99663.05;221033;1262;140062;-93
2024/02/04 22:49:52;;;;;;;10.70;2.70;;;;;;;6.72;100.00;99665.91;220395;1262;138670;-94